Dye, Virginia
Current Conditions -  °F | °C
As of 9:35 AM on Thursday 27 Nov 2014 (Local Time) from KJFZ Reporting Station
Light Snow Light Snow  
Wind Chill: 25°   Ceiling: 300
Heat Index: 33°   Visibility: 1mi
Dew Point: 32°   Wind: 12mph
Humidity: 95%   Direction: 330°NNW
Pressure: 30.06"   Gusts: NA
Location:  37.0813°N, 81.9203°W
Report Text: KJFZ 271435Z AUTO 33010KT 1SM -SN OVC003 01/00 A3006 RMK AO2 P0001 T00070000
Loading
Personal Weather Stations






























Interactive Weather Map New forecast layout! Learn more

10-Day Weather Forecast

Advertisements
Track Severe Weather on mobile